sensor_id;sensor_type;location;lat;lon;timestamp;pressure;altitude;pressure_sealevel;temperature;humidity
29315;BME280;16320;53.954;9.506;2023-04-22T00:01:21;100978.00;;;9.66;100.00
29315;BME280;16320;53.954;9.506;2023-04-22T00:04:28;100976.31;;;9.65;100.00
29315;BME280;16320;53.954;9.506;2023-04-22T00:07:33;100971.00;;;9.67;100.00
29315;BME280;16320;53.954;9.506;2023-04-22T00:10:38;100963.19;;;9.65;100.00
29315;BME280;16320;53.954;9.506;2023-04-22T00:13:42;100953.47;;;9.67;100.00
29315;BME280;16320;53.954;9.506;2023-04-22T00:16:47;100951.78;;;9.66;100.00
29315;BME280;16320;53.954;9.506;2023-04-22T00:19:51;100956.88;;;9.69;100.00
29315;BME280;16320;53.954;9.506;2023-04-22T00:22:56;100944.56;;;9.71;100.00
29315;BME280;16320;53.954;9.506;2023-04-22T00:26:01;100935.19;;;9.66;100.00
29315;BME280;16320;53.954;9.506;2023-04-22T00:29:05;100940.50;;;9.64;100.00
29315;BME280;16320;53.954;9.506;2023-04-22T00:32:10;100934.34;;;9.65;100.00
29315;BME280;16320;53.954;9.506;2023-04-22T00:35:14;100930.00;;;9.64;100.00
29315;BME280;16320;53.954;9.506;2023-04-22T00:38:19;100933.59;;;9.62;100.00
29315;BME280;16320;53.954;9.506;2023-04-22T00:41:24;100932.91;;;9.58;100.00
29315;BME280;16320;53.954;9.506;2023-04-22T00:44:29;100919.78;;;9.58;100.00
29315;BME280;16320;53.954;9.506;2023-04-22T00:47:34;100924.97;;;9.60;100.00
29315;BME280;16320;53.954;9.506;2023-04-22T00:50:39;100919.66;;;9.61;100.00
29315;BME280;16320;53.954;9.506;2023-04-22T00:53:43;100913.50;;;9.62;100.00
29315;BME280;16320;53.954;9.506;2023-04-22T00:56:48;100914.47;;;9.60;100.00
29315;BME280;16320;53.954;9.506;2023-04-22T00:59:52;100909.44;;;9.55;100.00
29315;BME280;16320;53.954;9.506;2023-04-22T01:02:57;100905.91;;;9.56;100.00
29315;BME280;16320;53.954;9.506;2023-04-22T01:06:02;100915.47;;;9.57;100.00
29315;BME280;16320;53.954;9.506;2023-04-22T01:09:06;100904.19;;;9.55;100.00
29315;BME280;16320;53.954;9.506;2023-04-22T01:12:11;100902.44;;;9.56;100.00
29315;BME280;16320;53.954;9.506;2023-04-22T01:15:15;100900.72;;;9.55;100.00
29315;BME280;16320;53.954;9.506;2023-04-22T01:18:19;100896.25;;;9.57;100.00
29315;BME280;16320;53.954;9.506;2023-04-22T01:21:25;100899.06;;;9.52;100.00
29315;BME280;16320;53.954;9.506;2023-04-22T01:24:31;100888.81;;;9.47;100.00
29315;BME280;16320;53.954;9.506;2023-04-22T01:27:37;100893.19;;;9.47;100.00
29315;BME280;16320;53.954;9.506;2023-04-22T01:30:42;100883.72;;;9.44;100.00
29315;BME280;16320;53.954;9.506;2023-04-22T01:33:47;100872.22;;;9.47;100.00
29315;BME280;16320;53.954;9.506;2023-04-22T01:36:51;100871.50;;;9.43;100.00
29315;BME280;16320;53.954;9.506;2023-04-22T01:39:57;100887.94;;;9.47;100.00
29315;BME280;16320;53.954;9.506;2023-04-22T01:43:02;100879.31;;;9.45;100.00
29315;BME280;16320;53.954;9.506;2023-04-22T01:46:06;100868.81;;;9.45;100.00
29315;BME280;16320;53.954;9.506;2023-04-22T01:49:11;100875.13;;;9.41;100.00
29315;BME280;16320;53.954;9.506;2023-04-22T01:52:16;100867.09;;;9.44;100.00
29315;BME280;16320;53.954;9.506;2023-04-22T01:55:21;100860.81;;;9.48;100.00
29315;BME280;16320;53.954;9.506;2023-04-22T01:58:28;100855.56;;;9.48;100.00
29315;BME280;16320;53.954;9.506;2023-04-22T02:01:33;100846.88;;;9.47;100.00
29315;BME280;16320;53.954;9.506;2023-04-22T02:04:37;100845.03;;;9.49;100.00
29315;BME280;16320;53.954;9.506;2023-04-22T02:07:42;100844.44;;;9.43;100.00
29315;BME280;16320;53.954;9.506;2023-04-22T02:10:46;100840.13;;;9.42;100.00
29315;BME280;16320;53.954;9.506;2023-04-22T02:13:51;100838.13;;;9.47;100.00
29315;BME280;16320;53.954;9.506;2023-04-22T02:16:55;100842.88;;;9.39;100.00
29315;BME280;16320;53.954;9.506;2023-04-22T02:20:00;100827.00;;;9.42;100.00
29315;BME280;16320;53.954;9.506;2023-04-22T02:23:05;100820.16;;;9.39;100.00
29315;BME280;16320;53.954;9.506;2023-04-22T02:26:09;100823.75;;;9.37;100.00
29315;BME280;16320;53.954;9.506;2023-04-22T02:29:14;100814.31;;;9.32;100.00
29315;BME280;16320;53.954;9.506;2023-04-22T02:32:19;100813.41;;;9.33;100.00
29315;BME280;16320;53.954;9.506;2023-04-22T02:35:23;100804.63;;;9.34;100.00
29315;BME280;16320;53.954;9.506;2023-04-22T02:38:27;100797.66;;;9.33;100.00
29315;BME280;16320;53.954;9.506;2023-04-22T02:41:32;100798.50;;;9.34;100.00
29315;BME280;16320;53.954;9.506;2023-04-22T02:44:36;100787.19;;;9.33;100.00
29315;BME280;16320;53.954;9.506;2023-04-22T02:47:41;100790.56;;;9.35;100.00
29315;BME280;16320;53.954;9.506;2023-04-22T02:50:45;100785.34;;;9.35;100.00
29315;BME280;16320;53.954;9.506;2023-04-22T02:53:49;100767.28;;;9.29;100.00
29315;BME280;16320;53.954;9.506;2023-04-22T02:56:54;100760.28;;;9.30;100.00
29315;BME280;16320;53.954;9.506;2023-04-22T02:59:58;100764.81;;;9.26;100.00
29315;BME280;16320;53.954;9.506;2023-04-22T03:03:03;100761.25;;;9.27;100.00
29315;BME280;16320;53.954;9.506;2023-04-22T03:06:08;100749.78;;;9.30;100.00
29315;BME280;16320;53.954;9.506;2023-04-22T03:09:13;100756.44;;;9.18;100.00
29315;BME280;16320;53.954;9.506;2023-04-22T03:12:17;100759.00;;;9.20;100.00
29315;BME280;16320;53.954;9.506;2023-04-22T03:15:21;100759.72;;;9.23;100.00
29315;BME280;16320;53.954;9.506;2023-04-22T03:18:25;100758.56;;;9.29;100.00
29315;BME280;16320;53.954;9.506;2023-04-22T03:21:30;100754.41;;;9.25;100.00
29315;BME280;16320;53.954;9.506;2023-04-22T03:24:35;100759.44;;;9.29;100.00
29315;BME280;16320;53.954;9.506;2023-04-22T03:27:39;100741.16;;;9.28;100.00
29315;BME280;16320;53.954;9.506;2023-04-22T03:30:44;100742.13;;;9.25;100.00
29315;BME280;16320;53.954;9.506;2023-04-22T03:33:48;100732.72;;;9.21;100.00
29315;BME280;16320;53.954;9.506;2023-04-22T03:36:53;100732.56;;;9.24;100.00
29315;BME280;16320;53.954;9.506;2023-04-22T03:39:57;100721.31;;;9.22;100.00
29315;BME280;16320;53.954;9.506;2023-04-22T03:43:01;100719.53;;;9.23;100.00
29315;BME280;16320;53.954;9.506;2023-04-22T03:46:06;100717.97;;;9.19;100.00
29315;BME280;16320;53.954;9.506;2023-04-22T03:49:14;100717.22;;;9.16;100.00
29315;BME280;16320;53.954;9.506;2023-04-22T03:52:18;100714.94;;;9.09;100.00
29315;BME280;16320;53.954;9.506;2023-04-22T03:55:23;100714.94;;;9.09;100.00
29315;BME280;16320;53.954;9.506;2023-04-22T03:58:27;100722.72;;;9.10;100.00
29315;BME280;16320;53.954;9.506;2023-04-22T04:01:31;100720.31;;;9.06;100.00
29315;BME280;16320;53.954;9.506;2023-04-22T04:04:36;100707.22;;;9.06;100.00
29315;BME280;16320;53.954;9.506;2023-04-22T04:07:41;100715.19;;;9.03;100.00
29315;BME280;16320;53.954;9.506;2023-04-22T04:10:45;100711.94;;;8.97;100.00
29315;BME280;16320;53.954;9.506;2023-04-22T04:13:49;100713.94;;;8.92;100.00
29315;BME280;16320;53.954;9.506;2023-04-22T04:16:53;100715.78;;;8.90;100.00
29315;BME280;16320;53.954;9.506;2023-04-22T04:19:57;100710.94;;;8.81;100.00
29315;BME280;16320;53.954;9.506;2023-04-22T04:23:02;100709.50;;;8.74;100.00
29315;BME280;16320;53.954;9.506;2023-04-22T04:26:06;100708.44;;;8.78;100.00
29315;BME280;16320;53.954;9.506;2023-04-22T04:29:11;100706.88;;;8.74;100.00
29315;BME280;16320;53.954;9.506;2023-04-22T04:32:16;100713.03;;;8.73;100.00
29315;BME280;16320;53.954;9.506;2023-04-22T04:35:21;100706.09;;;8.72;100.00
29315;BME280;16320;53.954;9.506;2023-04-22T04:38:26;100705.25;;;8.71;100.00
29315;BME280;16320;53.954;9.506;2023-04-22T04:41:32;100700.16;;;8.68;100.00
29315;BME280;16320;53.954;9.506;2023-04-22T04:44:36;100694.78;;;8.71;100.00
29315;BME280;16320;53.954;9.506;2023-04-22T04:47:40;100695.50;;;8.75;100.00
29315;BME280;16320;53.954;9.506;2023-04-22T04:50:45;100693.50;;;8.80;100.00
29315;BME280;16320;53.954;9.506;2023-04-22T04:53:50;100701.22;;;8.83;100.00
29315;BME280;16320;53.954;9.506;2023-04-22T04:56:54;100693.38;;;8.83;100.00
29315;BME280;16320;53.954;9.506;2023-04-22T05:00:00;100693.25;;;8.86;100.00
29315;BME280;16320;53.954;9.506;2023-04-22T05:03:06;100696.38;;;8.94;100.00
29315;BME280;16320;53.954;9.506;2023-04-22T05:06:11;100686.03;;;8.91;100.00
29315;BME280;16320;53.954;9.506;2023-04-22T05:09:16;100686.72;;;8.95;100.00
29315;BME280;16320;53.954;9.506;2023-04-22T05:12:20;100691.75;;;9.00;100.00
29315;BME280;16320;53.954;9.506;2023-04-22T05:15:24;100695.31;;;8.98;100.00
29315;BME280;16320;53.954;9.506;2023-04-22T05:18:29;100683.41;;;9.10;100.00
29315;BME280;16320;53.954;9.506;2023-04-22T05:21:34;100692.75;;;9.16;100.00
29315;BME280;16320;53.954;9.506;2023-04-22T05:24:39;100698.66;;;9.21;100.00
29315;BME280;16320;53.954;9.506;2023-04-22T05:27:43;100687.72;;;9.30;100.00
29315;BME280;16320;53.954;9.506;2023-04-22T05:30:47;100681.91;;;9.43;100.00
29315;BME280;16320;53.954;9.506;2023-04-22T05:33:52;100687.41;;;9.56;100.00
29315;BME280;16320;53.954;9.506;2023-04-22T05:36:56;100688.13;;;9.59;100.00
29315;BME280;16320;53.954;9.506;2023-04-22T05:40:00;100678.19;;;9.66;100.00
29315;BME280;16320;53.954;9.506;2023-04-22T05:43:04;100677.50;;;9.80;100.00
29315;BME280;16320;53.954;9.506;2023-04-22T05:46:09;100688.34;;;9.91;100.00
29315;BME280;16320;53.954;9.506;2023-04-22T05:49:14;100692.09;;;10.03;100.00
29315;BME280;16320;53.954;9.506;2023-04-22T05:52:18;100685.38;;;10.15;100.00
29315;BME280;16320;53.954;9.506;2023-04-22T05:55:23;100674.06;;;10.32;100.00
29315;BME280;16320;53.954;9.506;2023-04-22T05:58:27;100679.06;;;10.36;100.00
29315;BME280;16320;53.954;9.506;2023-04-22T06:01:31;100648.19;;;10.41;100.00
29315;BME280;16320;53.954;9.506;2023-04-22T06:04:36;100641.38;;;10.55;100.00
29315;BME280;16320;53.954;9.506;2023-04-22T06:07:41;100648.13;;;10.59;100.00
29315;BME280;16320;53.954;9.506;2023-04-22T06:10:46;100664.00;;;10.73;100.00
29315;BME280;16320;53.954;9.506;2023-04-22T06:13:50;100670.75;;;10.79;100.00
29315;BME280;16320;53.954;9.506;2023-04-22T06:16:54;100659.63;;;10.90;100.00
29315;BME280;16320;53.954;9.506;2023-04-22T06:19:59;100662.38;;;11.04;100.00
29315;BME280;16320;53.954;9.506;2023-04-22T06:23:03;100648.38;;;11.20;100.00
29315;BME280;16320;53.954;9.506;2023-04-22T06:26:08;100651.94;;;11.34;100.00
29315;BME280;16320;53.954;9.506;2023-04-22T06:29:12;100643.44;;;11.45;100.00
29315;BME280;16320;53.954;9.506;2023-04-22T06:32:17;100635.78;;;11.57;100.00
29315;BME280;16320;53.954;9.506;2023-04-22T06:35:21;100636.31;;;11.63;100.00
29315;BME280;16320;53.954;9.506;2023-04-22T06:38:25;100630.78;;;11.82;100.00
29315;BME280;16320;53.954;9.506;2023-04-22T06:41:30;100628.97;;;11.99;100.00
29315;BME280;16320;53.954;9.506;2023-04-22T06:44:36;100618.84;;;12.07;100.00
29315;BME280;16320;53.954;9.506;2023-04-22T06:47:40;100624.22;;;12.20;100.00
29315;BME280;16320;53.954;9.506;2023-04-22T06:50:45;100617.22;;;12.35;100.00
29315;BME280;16320;53.954;9.506;2023-04-22T06:53:49;100635.81;;;12.46;100.00
29315;BME280;16320;53.954;9.506;2023-04-22T06:56:54;100624.34;;;12.61;100.00
29315;BME280;16320;53.954;9.506;2023-04-22T06:59:58;100624.91;;;12.81;100.00
29315;BME280;16320;53.954;9.506;2023-04-22T07:03:03;100619.50;;;12.97;100.00
29315;BME280;16320;53.954;9.506;2023-04-22T07:06:08;100632.94;;;13.07;100.00
29315;BME280;16320;53.954;9.506;2023-04-22T07:09:12;100622.19;;;13.24;100.00
29315;BME280;16320;53.954;9.506;2023-04-22T07:12:18;100619.84;;;13.19;100.00
29315;BME280;16320;53.954;9.506;2023-04-22T07:15:23;100621.66;;;13.32;100.00
29315;BME280;16320;53.954;9.506;2023-04-22T07:18:28;100617.00;;;13.50;100.00
29315;BME280;16320;53.954;9.506;2023-04-22T07:21:32;100617.72;;;13.66;100.00
29315;BME280;16320;53.954;9.506;2023-04-22T07:24:37;100619.19;;;13.70;100.00
29315;BME280;16320;53.954;9.506;2023-04-22T07:27:42;100621.94;;;13.82;100.00
29315;BME280;16320;53.954;9.506;2023-04-22T07:30:47;100621.13;;;13.81;100.00
29315;BME280;16320;53.954;9.506;2023-04-22T07:33:52;100623.22;;;13.89;100.00
29315;BME280;16320;53.954;9.506;2023-04-22T07:36:57;100606.16;;;14.07;100.00
29315;BME280;16320;53.954;9.506;2023-04-22T07:40:01;100612.06;;;14.24;100.00
29315;BME280;16320;53.954;9.506;2023-04-22T07:43:06;100608.81;;;14.33;100.00
29315;BME280;16320;53.954;9.506;2023-04-22T07:46:11;100597.88;;;14.51;100.00
29315;BME280;16320;53.954;9.506;2023-04-22T07:49:15;100600.09;;;14.57;100.00
29315;BME280;16320;53.954;9.506;2023-04-22T07:52:20;100592.81;;;14.60;100.00
29315;BME280;16320;53.954;9.506;2023-04-22T07:55:24;100590.25;;;14.72;100.00
29315;BME280;16320;53.954;9.506;2023-04-22T07:58:29;100583.88;;;14.87;100.00
29315;BME280;16320;53.954;9.506;2023-04-22T08:01:33;100586.28;;;15.03;100.00
29315;BME280;16320;53.954;9.506;2023-04-22T08:04:38;100575.47;;;15.06;100.00
29315;BME280;16320;53.954;9.506;2023-04-22T08:07:43;100584.03;;;15.10;100.00
29315;BME280;16320;53.954;9.506;2023-04-22T08:10:48;100583.22;;;15.20;100.00
29315;BME280;16320;53.954;9.506;2023-04-22T08:13:52;100575.81;;;15.26;100.00
29315;BME280;16320;53.954;9.506;2023-04-22T08:16:56;100574.22;;;15.23;100.00
29315;BME280;16320;53.954;9.506;2023-04-22T08:20:00;100573.22;;;15.37;100.00
29315;BME280;16320;53.954;9.506;2023-04-22T08:23:06;100570.31;;;15.40;100.00
29315;BME280;16320;53.954;9.506;2023-04-22T08:26:12;100565.59;;;15.56;100.00
29315;BME280;16320;53.954;9.506;2023-04-22T08:29:18;100567.28;;;15.69;100.00
29315;BME280;16320;53.954;9.506;2023-04-22T08:32:22;100558.16;;;15.73;100.00
29315;BME280;16320;53.954;9.506;2023-04-22T08:35:29;100549.59;;;15.69;100.00
29315;BME280;16320;53.954;9.506;2023-04-22T08:38:34;100545.34;;;15.80;100.00
29315;BME280;16320;53.954;9.506;2023-04-22T08:41:38;100557.00;;;15.88;100.00
29315;BME280;16320;53.954;9.506;2023-04-22T08:44:44;100553.56;;;15.99;100.00
29315;BME280;16320;53.954;9.506;2023-04-22T08:47:49;100563.28;;;16.10;100.00
29315;BME280;16320;53.954;9.506;2023-04-22T08:50:54;100558.50;;;16.26;100.00
29315;BME280;16320;53.954;9.506;2023-04-22T08:53:58;100562.59;;;16.42;100.00
29315;BME280;16320;53.954;9.506;2023-04-22T08:57:04;100555.88;;;16.38;100.00
29315;BME280;16320;53.954;9.506;2023-04-22T09:00:15;100559.47;;;16.37;100.00
29315;BME280;16320;53.954;9.506;2023-04-22T09:03:21;100561.16;;;16.38;100.00
29315;BME280;16320;53.954;9.506;2023-04-22T09:06:26;100549.34;;;16.53;100.00
29315;BME280;16320;53.954;9.506;2023-04-22T09:09:30;100547.72;;;16.73;100.00
29315;BME280;16320;53.954;9.506;2023-04-22T09:12:36;100547.38;;;16.78;100.00
29315;BME280;16320;53.954;9.506;2023-04-22T09:15:42;100544.72;;;16.89;100.00
29315;BME280;16320;53.954;9.506;2023-04-22T09:18:46;100532.63;;;17.08;100.00
29315;BME280;16320;53.954;9.506;2023-04-22T09:21:51;100529.63;;;17.22;100.00
29315;BME280;16320;53.954;9.506;2023-04-22T09:24:57;100536.66;;;17.23;100.00
29315;BME280;16320;53.954;9.506;2023-04-22T09:28:01;100540.78;;;17.16;100.00
29315;BME280;16320;53.954;9.506;2023-04-22T09:31:14;100542.53;;;17.27;100.00
29315;BME280;16320;53.954;9.506;2023-04-22T09:34:21;100533.94;;;17.34;100.00
29315;BME280;16320;53.954;9.506;2023-04-22T09:37:25;100536.03;;;17.52;100.00
29315;BME280;16320;53.954;9.506;2023-04-22T09:40:43;100532.81;;;17.69;100.00
29315;BME280;16320;53.954;9.506;2023-04-22T09:43:48;100530.16;;;17.69;100.00
29315;BME280;16320;53.954;9.506;2023-04-22T09:46:54;100530.78;;;17.83;100.00
29315;BME280;16320;53.954;9.506;2023-04-22T09:50:03;100532.19;;;17.87;100.00
29315;BME280;16320;53.954;9.506;2023-04-22T09:53:10;100520.38;;;17.91;100.00
29315;BME280;16320;53.954;9.506;2023-04-22T09:56:15;100526.31;;;18.04;100.00
29315;BME280;16320;53.954;9.506;2023-04-22T09:59:22;100521.00;;;18.04;100.00
29315;BME280;16320;53.954;9.506;2023-04-22T10:02:28;100523.47;;;17.96;100.00
29315;BME280;16320;53.954;9.506;2023-04-22T10:05:34;100522.16;;;18.11;100.00
29315;BME280;16320;53.954;9.506;2023-04-22T10:08:41;100504.00;;;18.17;100.00
29315;BME280;16320;53.954;9.506;2023-04-22T10:11:53;100507.66;;;18.25;100.00
29315;BME280;16320;53.954;9.506;2023-04-22T10:14:57;100511.66;;;18.51;100.00
29315;BME280;16320;53.954;9.506;2023-04-22T10:18:05;100498.63;;;18.47;100.00
29315;BME280;16320;53.954;9.506;2023-04-22T10:21:11;100505.44;;;18.40;100.00
29315;BME280;16320;53.954;9.506;2023-04-22T10:24:17;100491.75;;;18.45;100.00
29315;BME280;16320;53.954;9.506;2023-04-22T10:27:22;100490.94;;;18.54;100.00
29315;BME280;16320;53.954;9.506;2023-04-22T10:30:29;100482.44;;;18.60;100.00
29315;BME280;16320;53.954;9.506;2023-04-22T10:33:35;100481.44;;;18.71;100.00
29315;BME280;16320;53.954;9.506;2023-04-22T10:37:08;100479.84;;;18.99;100.00
29315;BME280;16320;53.954;9.506;2023-04-22T10:40:17;100476.44;;;19.27;100.00
29315;BME280;16320;53.954;9.506;2023-04-22T10:50:23;100466.09;;;20.46;100.00
29315;BME280;16320;53.954;9.506;2023-04-22T10:53:36;100456.81;;;20.68;100.00
29315;BME280;16320;53.954;9.506;2023-04-22T11:03:29;100438.50;;;21.80;100.00
29315;BME280;16320;53.954;9.506;2023-04-22T11:06:34;100433.03;;;21.89;100.00
29315;BME280;16320;53.954;9.506;2023-04-22T11:09:41;100426.34;;;21.59;92.21
29315;BME280;16320;53.954;9.506;2023-04-22T11:12:48;100416.88;;;21.38;94.91
29315;BME280;16320;53.954;9.506;2023-04-22T11:15:54;100423.97;;;21.30;95.94
29315;BME280;16320;53.954;9.506;2023-04-22T11:18:58;100421.34;;;21.12;89.29
29315;BME280;16320;53.954;9.506;2023-04-22T11:22:04;100424.91;;;20.94;97.28
29315;BME280;16320;53.954;9.506;2023-04-22T11:25:09;100423.81;;;20.87;100.00
29315;BME280;16320;53.954;9.506;2023-04-22T11:28:14;100408.34;;;21.17;92.08
29315;BME280;16320;53.954;9.506;2023-04-22T11:31:18;100415.38;;;21.18;90.71
29315;BME280;16320;53.954;9.506;2023-04-22T11:34:23;100419.03;;;21.17;98.67
29315;BME280;16320;53.954;9.506;2023-04-22T11:37:27;100414.03;;;21.14;89.74
29315;BME280;16320;53.954;9.506;2023-04-22T11:40:39;100409.38;;;21.16;92.71
29315;BME280;16320;53.954;9.506;2023-04-22T11:43:54;100407.38;;;21.18;99.76
29315;BME280;16320;53.954;9.506;2023-04-22T11:47:00;100413.38;;;21.20;100.00
29315;BME280;16320;53.954;9.506;2023-04-22T11:50:10;100402.50;;;21.39;99.32
29315;BME280;16320;53.954;9.506;2023-04-22T11:53:21;100413.84;;;21.60;100.00
29315;BME280;16320;53.954;9.506;2023-04-22T11:56:27;100407.53;;;21.69;98.37
29315;BME280;16320;53.954;9.506;2023-04-22T11:59:31;100398.06;;;21.74;93.25
29315;BME280;16320;53.954;9.506;2023-04-22T12:02:36;100405.75;;;21.78;87.02
29315;BME280;16320;53.954;9.506;2023-04-22T12:06:03;100390.59;;;21.94;92.90
29315;BME280;16320;53.954;9.506;2023-04-22T12:09:07;100387.00;;;22.12;91.67
29315;BME280;16320;53.954;9.506;2023-04-22T12:12:12;100401.63;;;22.34;88.47
29315;BME280;16320;53.954;9.506;2023-04-22T12:15:17;100386.59;;;22.58;87.06
29315;BME280;16320;53.954;9.506;2023-04-22T12:18:36;100392.28;;;22.79;92.05
29315;BME280;16320;53.954;9.506;2023-04-22T12:21:41;100371.22;;;23.01;92.03
29315;BME280;16320;53.954;9.506;2023-04-22T12:24:45;100363.50;;;23.14;72.26
29315;BME280;16320;53.954;9.506;2023-04-22T12:27:50;100370.03;;;23.20;78.51
29315;BME280;16320;53.954;9.506;2023-04-22T12:30:54;100355.44;;;23.31;71.66
29315;BME280;16320;53.954;9.506;2023-04-22T12:33:59;100349.38;;;23.45;79.12
29315;BME280;16320;53.954;9.506;2023-04-22T12:37:03;100346.03;;;23.43;81.25
29315;BME280;16320;53.954;9.506;2023-04-22T12:40:09;100363.31;;;23.32;79.67
29315;BME280;16320;53.954;9.506;2023-04-22T12:43:14;100335.28;;;23.51;84.91
29315;BME280;16320;53.954;9.506;2023-04-22T12:46:19;100333.66;;;23.73;90.91
29315;BME280;16320;53.954;9.506;2023-04-22T12:49:24;100338.84;;;23.75;83.41
29315;BME280;16320;53.954;9.506;2023-04-22T12:52:29;100332.31;;;23.77;88.22
29315;BME280;16320;53.954;9.506;2023-04-22T12:55:35;100328.69;;;24.02;79.76
29315;BME280;16320;53.954;9.506;2023-04-22T12:58:39;100332.81;;;24.12;75.29
29315;BME280;16320;53.954;9.506;2023-04-22T13:01:44;100329.09;;;23.90;72.94
29315;BME280;16320;53.954;9.506;2023-04-22T13:04:51;100325.25;;;23.85;78.49
29315;BME280;16320;53.954;9.506;2023-04-22T13:07:55;100321.59;;;24.09;91.05
29315;BME280;16320;53.954;9.506;2023-04-22T13:11:10;100312.19;;;24.13;77.86
29315;BME280;16320;53.954;9.506;2023-04-22T13:14:16;100304.22;;;24.28;81.70
29315;BME280;16320;53.954;9.506;2023-04-22T13:17:20;100298.31;;;24.33;76.73
29315;BME280;16320;53.954;9.506;2023-04-22T13:20:25;100301.69;;;24.26;71.24
29315;BME280;16320;53.954;9.506;2023-04-22T13:23:29;100294.06;;;24.15;69.14
29315;BME280;16320;53.954;9.506;2023-04-22T13:26:35;100301.56;;;24.43;72.24
29315;BME280;16320;53.954;9.506;2023-04-22T13:29:40;100296.44;;;24.56;70.94
29315;BME280;16320;53.954;9.506;2023-04-22T13:32:45;100297.03;;;24.43;69.55
29315;BME280;16320;53.954;9.506;2023-04-22T13:35:50;100289.75;;;24.06;75.23
29315;BME280;16320;53.954;9.506;2023-04-22T13:38:56;100283.06;;;23.79;79.33
29315;BME280;16320;53.954;9.506;2023-04-22T13:42:00;100287.78;;;23.68;79.53
29315;BME280;16320;53.954;9.506;2023-04-22T13:45:07;100277.28;;;23.58;86.53
29315;BME280;16320;53.954;9.506;2023-04-22T13:48:13;100274.97;;;23.47;89.68
29315;BME280;16320;53.954;9.506;2023-04-22T13:51:18;100262.97;;;23.43;95.08
29315;BME280;16320;53.954;9.506;2023-04-22T13:54:22;100263.41;;;23.86;76.49
29315;BME280;16320;53.954;9.506;2023-04-22T13:57:27;100265.63;;;23.83;73.18
29315;BME280;16320;53.954;9.506;2023-04-22T14:00:33;100253.97;;;23.59;70.03
29315;BME280;16320;53.954;9.506;2023-04-22T14:03:37;100262.28;;;23.41;84.95
29315;BME280;16320;53.954;9.506;2023-04-22T14:06:42;100252.72;;;23.07;76.00
29315;BME280;16320;53.954;9.506;2023-04-22T14:09:46;100253.09;;;22.71;84.19
29315;BME280;16320;53.954;9.506;2023-04-22T14:12:51;100242.09;;;22.49;88.03
29315;BME280;16320;53.954;9.506;2023-04-22T14:15:55;100244.09;;;22.47;86.97
29315;BME280;16320;53.954;9.506;2023-04-22T14:19:00;100244.13;;;22.39;86.99
29315;BME280;16320;53.954;9.506;2023-04-22T14:22:05;100233.75;;;22.44;93.01
29315;BME280;16320;53.954;9.506;2023-04-22T14:25:10;100224.84;;;22.69;91.51
29315;BME280;16320;53.954;9.506;2023-04-22T14:28:15;100222.78;;;22.87;87.05
29315;BME280;16320;53.954;9.506;2023-04-22T14:31:19;100225.81;;;22.76;88.56
29315;BME280;16320;53.954;9.506;2023-04-22T14:34:24;100213.94;;;22.78;87.13
29315;BME280;16320;53.954;9.506;2023-04-22T14:37:30;100219.00;;;22.65;82.78
29315;BME280;16320;53.954;9.506;2023-04-22T14:40:35;100211.97;;;22.56;91.75
29315;BME280;16320;53.954;9.506;2023-04-22T14:43:39;100203.47;;;22.52;94.86
29315;BME280;16320;53.954;9.506;2023-04-22T14:46:44;100212.78;;;22.73;100.00
29315;BME280;16320;53.954;9.506;2023-04-22T14:49:48;100194.28;;;23.11;78.18
29315;BME280;16320;53.954;9.506;2023-04-22T14:52:53;100190.09;;;23.08;85.23
29315;BME280;16320;53.954;9.506;2023-04-22T14:56:00;100185.47;;;22.85;89.83
29315;BME280;16320;53.954;9.506;2023-04-22T14:59:05;100187.63;;;22.90;100.00
29315;BME280;16320;53.954;9.506;2023-04-22T15:02:13;100184.50;;;22.78;100.00
29315;BME280;16320;53.954;9.506;2023-04-22T15:05:20;100171.81;;;22.64;100.00
29315;BME280;16320;53.954;9.506;2023-04-22T15:08:26;100172.19;;;22.53;100.00
29315;BME280;16320;53.954;9.506;2023-04-22T15:11:30;100166.31;;;22.57;100.00
29315;BME280;16320;53.954;9.506;2023-04-22T15:14:35;100167.41;;;22.88;100.00
29315;BME280;16320;53.954;9.506;2023-04-22T15:17:40;100169.47;;;23.17;100.00
29315;BME280;16320;53.954;9.506;2023-04-22T15:20:48;100165.50;;;23.36;96.33
29315;BME280;16320;53.954;9.506;2023-04-22T15:23:52;100163.28;;;23.71;82.46
29315;BME280;16320;53.954;9.506;2023-04-22T15:26:58;100161.84;;;23.83;91.12
29315;BME280;16320;53.954;9.506;2023-04-22T15:30:05;100153.38;;;23.48;89.08
29315;BME280;16320;53.954;9.506;2023-04-22T15:33:10;100149.25;;;23.06;89.24
29315;BME280;16320;53.954;9.506;2023-04-22T15:36:14;100163.13;;;22.62;83.98
29315;BME280;16320;53.954;9.506;2023-04-22T15:39:22;100145.47;;;22.36;93.60
29315;BME280;16320;53.954;9.506;2023-04-22T15:42:27;100144.78;;;22.18;96.85
29315;BME280;16320;53.954;9.506;2023-04-22T15:45:33;100139.97;;;22.05;92.88
29315;BME280;16320;53.954;9.506;2023-04-22T15:48:38;100140.47;;;22.00;96.47
29315;BME280;16320;53.954;9.506;2023-04-22T15:51:44;100136.44;;;21.96;90.91
29315;BME280;16320;53.954;9.506;2023-04-22T15:54:49;100135.13;;;21.92;97.78
29315;BME280;16320;53.954;9.506;2023-04-22T15:57:54;100129.09;;;21.82;100.00
29315;BME280;16320;53.954;9.506;2023-04-22T16:00:58;100118.22;;;21.75;96.36
29315;BME280;16320;53.954;9.506;2023-04-22T16:04:20;100119.25;;;21.82;100.00
29315;BME280;16320;53.954;9.506;2023-04-22T16:07:26;100118.72;;;21.79;100.00
29315;BME280;16320;53.954;9.506;2023-04-22T16:10:30;100114.06;;;21.81;100.00
29315;BME280;16320;53.954;9.506;2023-04-22T16:13:34;100106.88;;;21.81;97.81
29315;BME280;16320;53.954;9.506;2023-04-22T16:16:39;100105.38;;;22.03;100.00